Time,TemperatureF,DewpointF,PressureIn,WindDirection,WindDirectionDegrees,WindSpeedMPH,WindSpeedGustMPH,Humidity,HourlyPrecipIn,Conditions,Clouds,dailyrainin,SoftwareType,DateUTC
2013-09-09 00:01:00,70.2,65.4,30.22,North,0,0.0,0.0,85,0.00,,,0.00,WUHU216HW,2013-09-09 05:01:00,
2013-09-09 00:06:00,70.2,65.4,30.22,North,0,0.0,0.0,85,0.00,,,0.00,WUHU216HW,2013-09-09 05:06:00,
2013-09-09 00:11:00,70.0,65.6,30.22,North,0,0.0,0.0,86,0.00,,,0.00,WUHU216HW,2013-09-09 05:11:00,
2013-09-09 00:16:00,69.8,65.4,30.22,North,0,0.0,0.0,86,0.00,,,0.00,WUHU216HW,2013-09-09 05:16:00,
2013-09-09 00:21:00,69.8,65.4,30.22,North,0,0.0,0.0,86,0.00,,,0.00,WUHU216HW,2013-09-09 05:21:00,
2013-09-09 00:26:00,69.7,65.3,30.22,North,0,0.0,0.0,86,0.00,,,0.00,WUHU216HW,2013-09-09 05:26:00,
2013-09-09 00:31:00,69.5,65.1,30.22,North,0,0.0,0.0,86,0.00,,,0.00,WUHU216HW,2013-09-09 05:31:00,
2013-09-09 00:36:00,69.5,65.1,30.21,North,0,0.0,0.0,86,0.00,,,0.00,WUHU216HW,2013-09-09 05:36:00,
2013-09-09 00:41:00,69.3,65.3,30.21,North,0,0.0,0.0,87,0.00,,,0.00,WUHU216HW,2013-09-09 05:41:00,
2013-09-09 00:46:00,69.1,65.1,30.21,North,0,0.0,0.0,87,0.00,,,0.00,WUHU216HW,2013-09-09 05:46:00,
2013-09-09 00:51:00,69.1,65.1,30.21,North,0,0.0,0.0,87,0.00,,,0.00,WUHU216HW,2013-09-09 05:51:00,
2013-09-09 00:56:00,68.9,64.9,30.21,North,0,0.0,0.0,87,0.00,,,0.00,WUHU216HW,2013-09-09 05:56:00,
2013-09-09 01:01:00,68.8,64.7,30.21,North,0,0.0,0.0,87,0.00,,,0.00,WUHU216HW,2013-09-09 06:01:00,
2013-09-09 01:06:00,68.8,65.1,30.21,North,0,0.0,0.0,88,0.00,,,0.00,WUHU216HW,2013-09-09 06:06:00,
2013-09-09 01:11:00,68.8,65.1,30.21,North,0,0.0,0.0,88,0.00,,,0.00,WUHU216HW,2013-09-09 06:11:00,
2013-09-09 01:16:00,68.8,65.1,30.21,North,0,0.0,0.0,88,0.00,,,0.00,WUHU216HW,2013-09-09 06:16:00,
2013-09-09 01:21:00,68.6,64.9,30.21,North,0,0.0,0.0,88,0.00,,,0.00,WUHU216HW,2013-09-09 06:21:00,
2013-09-09 01:26:00,68.6,64.9,30.20,North,0,0.0,0.0,88,0.00,,,0.00,WUHU216HW,2013-09-09 06:26:00,
2013-09-09 01:31:00,68.6,64.9,30.20,North,0,0.0,0.0,88,0.00,,,0.00,WUHU216HW,2013-09-09 06:31:00,
2013-09-09 01:36:00,68.6,64.9,30.20,North,0,0.0,0.0,88,0.00,,,0.00,WUHU216HW,2013-09-09 06:36:00,
2013-09-09 01:41:00,68.6,64.9,30.20,North,0,0.0,0.0,88,0.00,,,0.00,WUHU216HW,2013-09-09 06:41:00,
2013-09-09 01:46:00,68.4,64.7,30.20,North,0,0.0,0.0,88,0.00,,,0.00,WUHU216HW,2013-09-09 06:46:00,
2013-09-09 01:51:00,68.4,64.7,30.19,North,0,0.0,0.0,88,0.00,,,0.00,WUHU216HW,2013-09-09 06:51:00,
2013-09-09 01:56:00,68.4,64.7,30.20,North,0,0.0,0.0,88,0.00,,,0.00,WUHU216HW,2013-09-09 06:56:00,
2013-09-09 02:01:00,68.4,64.7,30.20,North,0,0.0,0.0,88,0.00,,,0.00,WUHU216HW,2013-09-09 07:01:00,
2013-09-09 02:06:00,68.4,65.0,30.19,North,0,0.0,0.0,89,0.00,,,0.00,WUHU216HW,2013-09-09 07:06:00,
2013-09-09 02:11:00,68.6,65.2,30.19,North,0,0.0,0.0,89,0.00,,,0.00,WUHU216HW,2013-09-09 07:11:00,
2013-09-09 02:16:00,68.6,65.2,30.19,North,0,0.0,0.0,89,0.00,,,0.00,WUHU216HW,2013-09-09 07:16:00,
2013-09-09 02:21:00,68.6,65.2,30.19,North,0,0.0,0.0,89,0.00,,,0.00,WUHU216HW,2013-09-09 07:21:00,
2013-09-09 02:26:00,68.6,65.2,30.19,North,0,0.0,0.0,89,0.00,,,0.00,WUHU216HW,2013-09-09 07:26:00,
2013-09-09 02:31:00,68.4,65.0,30.19,North,0,0.0,0.0,89,0.00,,,0.00,WUHU216HW,2013-09-09 07:31:00,
2013-09-09 02:36:00,68.4,65.0,30.19,North,0,0.0,0.0,89,0.00,,,0.00,WUHU216HW,2013-09-09 07:36:00,
2013-09-09 02:41:00,68.4,65.0,30.18,North,0,0.0,0.0,89,0.00,,,0.00,WUHU216HW,2013-09-09 07:41:00,
2013-09-09 02:46:00,68.2,64.8,30.18,North,0,0.0,0.0,89,0.00,,,0.00,WUHU216HW,2013-09-09 07:46:00,
2013-09-09 02:51:00,68.2,65.2,30.18,North,0,0.0,0.0,90,0.00,,,0.00,WUHU216HW,2013-09-09 07:51:00,
2013-09-09 02:56:00,68.2,65.2,30.18,North,0,0.0,0.0,90,0.00,,,0.00,WUHU216HW,2013-09-09 07:56:00,
2013-09-09 03:01:00,68.2,65.2,30.18,North,0,0.0,0.0,90,0.00,,,0.00,WUHU216HW,2013-09-09 08:01:00,
2013-09-09 03:06:00,68.2,65.2,30.18,North,0,0.0,0.0,90,0.00,,,0.00,WUHU216HW,2013-09-09 08:06:00,
2013-09-09 03:11:00,68.2,65.2,30.18,North,0,0.0,0.0,90,0.00,,,0.00,WUHU216HW,2013-09-09 08:11:00,
2013-09-09 03:16:00,68.4,65.3,30.17,North,0,0.0,0.0,90,0.00,,,0.00,WUHU216HW,2013-09-09 08:16:00,
2013-09-09 03:21:00,68.6,65.5,30.17,North,0,0.0,0.0,90,0.00,,,0.00,WUHU216HW,2013-09-09 08:21:00,
2013-09-09 03:26:00,68.6,65.5,30.17,North,0,0.0,0.0,90,0.00,,,0.00,WUHU216HW,2013-09-09 08:26:00,
2013-09-09 03:31:00,68.6,65.5,30.17,North,0,0.0,0.0,90,0.00,,,0.00,WUHU216HW,2013-09-09 08:31:00,
2013-09-09 03:36:00,68.8,65.7,30.18,North,0,0.0,0.0,90,0.00,,,0.00,WUHU216HW,2013-09-09 08:36:00,
2013-09-09 03:41:00,68.8,65.7,30.17,North,0,0.0,0.0,90,0.00,,,0.00,WUHU216HW,2013-09-09 08:41:00,
2013-09-09 03:46:00,68.8,65.7,30.17,North,0,0.0,0.0,90,0.00,,,0.00,WUHU216HW,2013-09-09 08:46:00,
2013-09-09 03:51:00,68.8,65.7,30.17,North,0,0.0,0.0,90,0.00,,,0.00,WUHU216HW,2013-09-09 08:51:00,
2013-09-09 03:56:00,68.8,65.7,30.17,North,0,0.0,0.0,90,0.00,,,0.00,WUHU216HW,2013-09-09 08:56:00,
2013-09-09 04:01:00,68.9,65.9,30.17,North,0,0.0,0.0,90,0.00,,,0.00,WUHU216HW,2013-09-09 09:01:00,
2013-09-09 04:06:00,68.9,65.9,30.17,North,0,0.0,0.0,90,0.00,,,0.00,WUHU216HW,2013-09-09 09:06:00,
2013-09-09 04:11:00,68.9,65.9,30.17,North,0,0.0,0.0,90,0.00,,,0.00,WUHU216HW,2013-09-09 09:11:00,
2013-09-09 04:16:00,68.9,65.9,30.17,North,0,0.0,0.0,90,0.00,,,0.00,WUHU216HW,2013-09-09 09:16:00,
2013-09-09 04:21:00,68.8,65.7,30.17,North,0,0.0,0.0,90,0.00,,,0.00,WUHU216HW,2013-09-09 09:21:00,
2013-09-09 04:26:00,68.8,65.7,30.17,North,0,0.0,0.0,90,0.00,,,0.00,WUHU216HW,2013-09-09 09:26:00,
2013-09-09 04:31:00,68.6,65.5,30.17,North,0,0.0,0.0,90,0.00,,,0.00,WUHU216HW,2013-09-09 09:31:00,
2013-09-09 04:36:00,68.6,65.5,30.17,North,0,0.0,0.0,90,0.00,,,0.00,WUHU216HW,2013-09-09 09:36:00,
2013-09-09 04:41:00,68.4,65.6,30.17,North,0,0.0,0.0,91,0.00,,,0.00,WUHU216HW,2013-09-09 09:41:00,
2013-09-09 04:46:00,68.4,65.6,30.17,North,0,0.0,0.0,91,0.00,,,0.00,WUHU216HW,2013-09-09 09:46:00,
2013-09-09 04:51:00,68.2,65.4,30.16,North,0,0.0,0.0,91,0.00,,,0.00,WUHU216HW,2013-09-09 09:51:00,
2013-09-09 04:56:00,68.2,65.4,30.16,North,0,0.0,0.0,91,0.00,,,0.00,WUHU216HW,2013-09-09 09:56:00,
2013-09-09 05:01:00,68.0,65.3,30.16,North,0,0.0,0.0,91,0.00,,,0.00,WUHU216HW,2013-09-09 10:01:00,
2013-09-09 05:06:00,68.0,65.3,30.16,North,0,0.0,0.0,91,0.00,,,0.00,WUHU216HW,2013-09-09 10:06:00,
2013-09-09 05:11:00,68.2,65.4,30.16,North,0,0.0,0.0,91,0.00,,,0.00,WUHU216HW,2013-09-09 10:11:00,
2013-09-09 05:16:00,68.4,65.6,30.16,North,0,0.0,0.0,91,0.00,,,0.00,WUHU216HW,2013-09-09 10:16:00,
2013-09-09 05:21:00,68.4,65.6,30.16,North,0,0.0,0.0,91,0.00,,,0.00,WUHU216HW,2013-09-09 10:21:00,
2013-09-09 05:26:00,68.4,65.6,30.15,North,0,0.0,0.0,91,0.00,,,0.00,WUHU216HW,2013-09-09 10:26:00,
2013-09-09 05:31:00,68.4,65.6,30.16,North,0,0.0,0.0,91,0.00,,,0.00,WUHU216HW,2013-09-09 10:31:00,
2013-09-09 05:36:00,68.4,65.6,30.16,North,0,0.0,0.0,91,0.00,,,0.00,WUHU216HW,2013-09-09 10:36:00,
2013-09-09 05:41:00,68.4,65.6,30.16,North,0,0.0,0.0,91,0.00,,,0.00,WUHU216HW,2013-09-09 10:41:00,
2013-09-09 05:46:00,68.2,65.4,30.16,North,0,0.0,0.0,91,0.00,,,0.00,WUHU216HW,2013-09-09 10:46:00,
2013-09-09 05:51:00,68.2,65.4,30.16,North,0,0.0,0.0,91,0.00,,,0.00,WUHU216HW,2013-09-09 10:51:00,
2013-09-09 05:56:00,68.2,65.4,30.16,North,0,0.0,0.0,91,0.00,,,0.00,WUHU216HW,2013-09-09 10:56:00,
2013-09-09 06:02:00,68.2,65.4,30.16,North,0,0.0,0.0,91,0.00,,,0.00,WUHU216HW,2013-09-09 11:02:00,
2013-09-09 06:07:00,68.0,65.3,30.16,North,0,0.0,0.0,91,0.00,,,0.00,WUHU216HW,2013-09-09 11:07:00,
2013-09-09 06:12:00,68.0,65.3,30.16,North,0,0.0,0.0,91,0.00,,,0.00,WUHU216HW,2013-09-09 11:12:00,
2013-09-09 06:17:00,68.0,65.6,30.16,North,0,0.0,0.0,92,0.00,,,0.00,WUHU216HW,2013-09-09 11:17:00,
2013-09-09 06:22:00,68.0,65.6,30.16,North,0,0.0,0.0,92,0.00,,,0.00,WUHU216HW,2013-09-09 11:22:00,
2013-09-09 06:27:00,68.0,65.6,30.16,North,0,0.0,0.0,92,0.00,,,0.00,WUHU216HW,2013-09-09 11:27:00,
2013-09-09 06:32:00,68.0,65.6,30.16,North,0,0.0,0.0,92,0.00,,,0.00,WUHU216HW,2013-09-09 11:32:00,
2013-09-09 06:37:00,68.0,65.6,30.16,North,0,0.0,0.0,92,0.00,,,0.00,WUHU216HW,2013-09-09 11:37:00,
2013-09-09 06:42:00,68.0,65.6,30.15,North,0,0.0,0.0,92,0.00,,,0.00,WUHU216HW,2013-09-09 11:42:00,
2013-09-09 06:47:00,68.0,65.6,30.16,North,0,0.0,0.0,92,0.00,,,0.00,WUHU216HW,2013-09-09 11:47:00,
2013-09-09 06:52:00,68.0,65.6,30.16,North,0,0.0,0.0,92,0.00,,,0.00,WUHU216HW,2013-09-09 11:52:00,
2013-09-09 06:57:00,68.2,65.8,30.16,North,0,0.0,0.0,92,0.00,,,0.00,WUHU216HW,2013-09-09 11:57:00,
2013-09-09 07:02:00,68.2,65.8,30.16,North,0,0.0,0.0,92,0.00,,,0.00,WUHU216HW,2013-09-09 12:02:00,
2013-09-09 07:07:00,68.4,66.0,30.16,North,0,0.0,0.0,92,0.00,,,0.00,WUHU216HW,2013-09-09 12:07:00,
2013-09-09 07:12:00,68.8,66.3,30.16,North,0,0.0,0.0,92,0.00,,,0.00,WUHU216HW,2013-09-09 12:12:00,
2013-09-09 07:17:00,69.1,66.7,30.17,North,0,0.0,0.0,92,0.00,,,0.00,WUHU216HW,2013-09-09 12:17:00,
2013-09-09 07:22:00,69.7,67.5,30.17,North,0,0.0,0.0,93,0.00,,,0.00,WUHU216HW,2013-09-09 12:22:00,
2013-09-09 07:27:00,70.2,68.0,30.17,North,0,0.0,0.0,93,0.00,,,0.00,WUHU216HW,2013-09-09 12:27:00,
2013-09-09 07:32:00,70.9,68.5,30.17,North,0,0.0,0.0,92,0.00,,,0.00,WUHU216HW,2013-09-09 12:32:00,
2013-09-09 07:37:00,71.5,69.0,30.17,North,0,0.0,0.0,92,0.00,,,0.00,WUHU216HW,2013-09-09 12:37:00,
2013-09-09 07:42:00,72.0,69.2,30.17,North,0,0.0,0.0,91,0.00,,,0.00,WUHU216HW,2013-09-09 12:42:00,
2013-09-09 07:47:00,72.4,69.6,30.17,North,0,0.0,0.0,91,0.00,,,0.00,WUHU216HW,2013-09-09 12:47:00,
2013-09-09 07:51:00,73.1,70.3,30.17,North,0,0.0,0.0,91,0.00,,,0.00,WUHU216HW,2013-09-09 12:51:00,
2013-09-09 07:56:00,73.6,70.8,30.17,North,0,0.0,0.0,91,0.00,,,0.00,WUHU216HW,2013-09-09 12:56:00,
2013-09-09 08:01:00,74.0,70.9,30.17,North,0,0.0,0.0,90,0.00,,,0.00,WUHU216HW,2013-09-09 13:01:00,
2013-09-09 08:07:00,74.7,71.6,30.17,North,0,0.0,0.0,90,0.00,,,0.00,WUHU216HW,2013-09-09 13:07:00,
2013-09-09 08:12:00,75.4,72.0,30.17,North,0,0.0,0.0,89,0.00,,,0.00,WUHU216HW,2013-09-09 13:12:00,
2013-09-09 08:17:00,75.8,72.0,30.17,North,0,0.0,0.0,88,0.00,,,0.00,WUHU216HW,2013-09-09 13:17:00,
2013-09-09 08:22:00,76.3,72.2,30.17,North,0,0.0,0.0,87,0.00,,,0.00,WUHU216HW,2013-09-09 13:22:00,
2013-09-09 08:26:00,77.0,72.5,30.17,North,0,0.0,0.0,86,0.00,,,0.00,WUHU216HW,2013-09-09 13:26:00,
2013-09-09 08:31:00,77.4,72.5,30.17,North,0,0.0,0.0,85,0.00,,,0.00,WUHU216HW,2013-09-09 13:31:00,
2013-09-09 08:36:00,77.9,73.1,30.17,North,0,0.0,0.0,85,0.00,,,0.00,WUHU216HW,2013-09-09 13:36:00,
2013-09-09 08:41:00,78.5,73.3,30.17,North,0,0.0,0.0,84,0.00,,,0.00,WUHU216HW,2013-09-09 13:41:00,
2013-09-09 08:46:00,79.0,73.5,30.17,North,0,0.0,0.0,83,0.00,,,0.00,WUHU216HW,2013-09-09 13:46:00,
2013-09-09 08:52:00,79.4,73.8,30.17,North,0,0.0,0.0,83,0.00,,,0.00,WUHU216HW,2013-09-09 13:52:00,
2013-09-09 08:57:00,79.9,73.6,30.17,North,0,0.0,0.0,81,0.00,,,0.00,WUHU216HW,2013-09-09 13:57:00,
2013-09-09 09:02:00,80.3,74.0,30.17,North,0,0.0,0.0,81,0.00,,,0.00,WUHU216HW,2013-09-09 14:02:00,
2013-09-09 09:07:00,80.5,73.8,30.17,North,0,0.0,0.0,80,0.00,,,0.00,WUHU216HW,2013-09-09 14:07:00,
2013-09-09 09:12:00,80.6,74.0,30.17,North,0,0.0,0.0,80,0.00,,,0.00,WUHU216HW,2013-09-09 14:12:00,
2013-09-09 09:17:00,81.2,74.2,30.17,North,0,0.0,0.0,79,0.00,,,0.00,WUHU216HW,2013-09-09 14:17:00,
2013-09-09 09:22:00,81.7,74.6,30.17,North,0,0.0,0.0,79,0.00,,,0.00,WUHU216HW,2013-09-09 14:22:00,
2013-09-09 09:27:00,82.3,75.2,30.17,North,0,0.0,0.0,79,0.00,,,0.00,WUHU216HW,2013-09-09 14:27:00,
2013-09-09 09:32:00,82.6,75.2,30.16,North,0,0.0,0.0,78,0.00,,,0.00,WUHU216HW,2013-09-09 14:32:00,
2013-09-09 09:37:00,83.0,75.1,30.17,North,0,0.0,0.0,77,0.00,,,0.00,WUHU216HW,2013-09-09 14:37:00,
2013-09-09 09:42:00,83.3,75.0,30.16,North,0,0.0,0.0,76,0.00,,,0.00,WUHU216HW,2013-09-09 14:42:00,
2013-09-09 09:47:00,83.7,75.3,30.17,North,0,0.0,0.0,76,0.00,,,0.00,WUHU216HW,2013-09-09 14:47:00,
2013-09-09 09:52:00,84.1,75.2,30.17,North,0,0.0,0.0,75,0.00,,,0.00,WUHU216HW,2013-09-09 14:52:00,
2013-09-09 09:57:00,84.4,75.6,30.16,North,0,0.0,0.0,75,0.00,,,0.00,WUHU216HW,2013-09-09 14:57:00,
2013-09-09 10:02:00,84.6,75.4,30.16,North,0,0.0,0.0,74,0.00,,,0.00,WUHU216HW,2013-09-09 15:02:00,
2013-09-09 10:07:00,84.8,75.6,30.16,North,0,0.0,0.0,74,0.00,,,0.00,WUHU216HW,2013-09-09 15:07:00,
2013-09-09 10:12:00,85.1,75.5,30.17,North,0,0.0,0.0,73,0.00,,,0.00,WUHU216HW,2013-09-09 15:12:00,
2013-09-09 10:17:00,85.5,75.9,30.16,North,0,0.0,0.0,73,0.00,,,0.00,WUHU216HW,2013-09-09 15:17:00,
2013-09-09 10:22:00,86.0,76.1,30.16,North,0,0.0,0.0,72,0.00,,,0.00,WUHU216HW,2013-09-09 15:22:00,
2013-09-09 10:27:00,86.2,76.2,30.16,North,0,0.0,0.0,72,0.00,,,0.00,WUHU216HW,2013-09-09 15:27:00,
2013-09-09 10:32:00,86.4,75.6,30.16,North,0,0.0,0.0,70,0.00,,,0.00,WUHU216HW,2013-09-09 15:32:00,
2013-09-09 10:37:00,86.8,75.9,30.16,North,0,0.0,0.0,70,0.00,,,0.00,WUHU216HW,2013-09-09 15:37:00,
2013-09-09 10:42:00,87.1,75.8,30.16,North,0,0.0,0.0,69,0.00,,,0.00,WUHU216HW,2013-09-09 15:42:00,
2013-09-09 10:47:00,87.5,75.6,30.16,North,0,0.0,0.0,68,0.00,,,0.00,WUHU216HW,2013-09-09 15:47:00,
2013-09-09 10:52:00,87.7,75.8,30.16,North,0,0.0,0.0,68,0.00,,,0.00,WUHU216HW,2013-09-09 15:52:00,
2013-09-09 10:57:00,87.8,75.5,30.16,North,0,0.0,0.0,67,0.00,,,0.00,WUHU216HW,2013-09-09 15:57:00,
2013-09-09 11:02:00,88.2,75.9,30.16,North,0,0.0,0.0,67,0.00,,,0.00,WUHU216HW,2013-09-09 16:02:00,
2013-09-09 11:07:00,88.4,75.6,30.16,North,0,0.0,0.0,66,0.00,,,0.00,WUHU216HW,2013-09-09 16:07:00,
2013-09-09 11:12:00,88.6,75.8,30.16,North,0,0.0,0.0,66,0.00,,,0.00,WUHU216HW,2013-09-09 16:12:00,
2013-09-09 11:17:00,88.6,75.3,30.16,North,0,0.0,0.0,65,0.00,,,0.00,WUHU216HW,2013-09-09 16:17:00,
2013-09-09 11:22:00,88.7,76.0,30.16,North,0,0.0,0.0,66,0.00,,,0.00,WUHU216HW,2013-09-09 16:22:00,
2013-09-09 11:27:00,88.9,75.6,30.16,North,0,0.0,0.0,65,0.00,,,0.00,WUHU216HW,2013-09-09 16:27:00,
2013-09-09 11:32:00,89.1,75.3,30.16,North,0,0.0,0.0,64,0.00,,,0.00,WUHU216HW,2013-09-09 16:32:00,
2013-09-09 11:37:00,89.3,75.5,30.16,North,0,0.0,0.0,64,0.00,,,0.00,WUHU216HW,2013-09-09 16:37:00,
2013-09-09 11:42:00,89.5,75.7,30.16,North,0,0.0,0.0,64,0.00,,,0.00,WUHU216HW,2013-09-09 16:42:00,
2013-09-09 11:47:00,89.8,76.1,30.16,North,0,0.0,0.0,64,0.00,,,0.00,WUHU216HW,2013-09-09 16:47:00,
2013-09-09 11:52:00,90.0,75.7,30.15,North,0,0.0,0.0,63,0.00,,,0.00,WUHU216HW,2013-09-09 16:52:00,
2013-09-09 11:57:00,90.4,76.1,30.15,North,0,0.0,0.0,63,0.00,,,0.00,WUHU216HW,2013-09-09 16:57:00,
2013-09-09 12:02:00,90.4,75.6,30.15,North,0,0.0,0.0,62,0.00,,,0.00,WUHU216HW,2013-09-09 17:02:00,
2013-09-09 12:07:00,90.7,75.9,30.15,North,0,0.0,0.0,62,0.00,,,0.00,WUHU216HW,2013-09-09 17:07:00,
2013-09-09 12:12:00,90.9,76.1,30.15,North,0,0.0,0.0,62,0.00,,,0.00,WUHU216HW,2013-09-09 17:12:00,
2013-09-09 12:17:00,90.9,75.6,30.15,North,0,0.0,0.0,61,0.00,,,0.00,WUHU216HW,2013-09-09 17:17:00,
2013-09-09 12:22:00,91.1,75.8,30.15,North,0,0.0,0.0,61,0.00,,,0.00,WUHU216HW,2013-09-09 17:22:00,
2013-09-09 12:27:00,91.4,76.1,30.15,North,0,0.0,0.0,61,0.00,,,0.00,WUHU216HW,2013-09-09 17:27:00,
2013-09-09 12:32:00,91.4,75.6,30.15,North,0,0.0,0.0,60,0.00,,,0.00,WUHU216HW,2013-09-09 17:32:00,
2013-09-09 12:37:00,91.8,76.0,30.15,North,0,0.0,0.0,60,0.00,,,0.00,WUHU216HW,2013-09-09 17:37:00,
2013-09-09 12:42:00,91.8,76.0,30.15,North,0,0.0,0.0,60,0.00,,,0.00,WUHU216HW,2013-09-09 17:42:00,
2013-09-09 12:47:00,92.2,75.8,30.15,North,0,0.0,0.0,59,0.00,,,0.00,WUHU216HW,2013-09-09 17:47:00,
2013-09-09 12:52:00,92.3,76.0,30.14,North,0,0.0,0.0,59,0.00,,,0.00,WUHU216HW,2013-09-09 17:52:00,
2013-09-09 12:57:00,92.5,75.6,30.14,North,0,0.0,0.0,58,0.00,,,0.00,WUHU216HW,2013-09-09 17:57:00,
2013-09-09 13:02:00,92.5,75.6,30.14,North,0,0.0,0.0,58,0.00,,,0.00,WUHU216HW,2013-09-09 18:02:00,
2013-09-09 13:07:00,92.5,75.1,30.14,North,0,0.0,0.0,57,0.00,,,0.00,WUHU216HW,2013-09-09 18:07:00,
2013-09-09 13:12:00,92.7,75.3,30.14,North,0,0.0,0.0,57,0.00,,,0.00,WUHU216HW,2013-09-09 18:12:00,
2013-09-09 13:17:00,92.9,75.4,30.14,North,0,0.0,0.0,57,0.00,,,0.00,WUHU216HW,2013-09-09 18:17:00,
2013-09-09 13:22:00,92.9,74.8,30.14,North,0,0.0,0.0,56,0.00,,,0.00,WUHU216HW,2013-09-09 18:22:00,
2013-09-09 13:27:00,92.9,74.8,30.14,North,0,0.0,0.0,56,0.00,,,0.00,WUHU216HW,2013-09-09 18:27:00,
2013-09-09 13:32:00,93.1,75.0,30.13,North,0,0.0,0.0,56,0.00,,,0.00,WUHU216HW,2013-09-09 18:32:00,
2013-09-09 13:37:00,93.2,75.2,30.13,North,0,0.0,0.0,56,0.00,,,0.00,WUHU216HW,2013-09-09 18:37:00,
2013-09-09 13:42:00,93.2,74.6,30.13,North,0,0.0,0.0,55,0.00,,,0.00,WUHU216HW,2013-09-09 18:42:00,
2013-09-09 13:47:00,93.2,74.1,30.13,North,0,0.0,0.0,54,0.00,,,0.00,WUHU216HW,2013-09-09 18:47:00,
2013-09-09 13:52:00,93.2,74.6,30.14,North,0,0.0,0.0,55,0.00,,,0.00,WUHU216HW,2013-09-09 18:52:00,
2013-09-09 13:57:00,93.6,75.0,30.13,North,0,0.0,0.0,55,0.00,,,0.00,WUHU216HW,2013-09-09 18:57:00,
2013-09-09 14:02:00,93.6,74.4,30.13,North,0,0.0,0.0,54,0.00,,,0.00,WUHU216HW,2013-09-09 19:02:00,
2013-09-09 14:07:00,93.8,74.6,30.13,North,0,0.0,0.0,54,0.00,,,0.00,WUHU216HW,2013-09-09 19:07:00,
2013-09-09 14:12:00,94.0,74.7,30.13,North,0,0.0,0.0,54,0.00,,,0.00,WUHU216HW,2013-09-09 19:12:00,
2013-09-09 14:17:00,94.0,74.2,30.13,North,0,0.0,0.0,53,0.00,,,0.00,WUHU216HW,2013-09-09 19:17:00,
2013-09-09 14:22:00,94.0,74.2,30.12,North,0,0.0,0.0,53,0.00,,,0.00,WUHU216HW,2013-09-09 19:22:00,
2013-09-09 14:27:00,94.1,73.8,30.12,North,0,0.0,0.0,52,0.00,,,0.00,WUHU216HW,2013-09-09 19:27:00,
2013-09-09 14:32:00,94.3,74.0,30.13,North,0,0.0,0.0,52,0.00,,,0.00,WUHU216HW,2013-09-09 19:32:00,
2013-09-09 14:37:00,94.5,74.2,30.12,North,0,0.0,0.0,52,0.00,,,0.00,WUHU216HW,2013-09-09 19:37:00,
2013-09-09 14:42:00,94.7,74.3,30.12,North,0,0.0,0.0,52,0.00,,,0.00,WUHU216HW,2013-09-09 19:42:00,
2013-09-09 14:47:00,94.7,73.8,30.12,North,0,0.0,0.0,51,0.00,,,0.00,WUHU216HW,2013-09-09 19:47:00,
2013-09-09 14:52:00,94.9,74.0,30.12,North,0,0.0,0.0,51,0.00,,,0.00,WUHU216HW,2013-09-09 19:52:00,
2013-09-09 14:57:00,95.0,74.2,30.12,North,0,0.0,0.0,51,0.00,,,0.00,WUHU216HW,2013-09-09 19:57:00,
2013-09-09 15:02:00,95.2,74.4,30.12,North,0,0.0,0.0,51,0.00,,,0.00,WUHU216HW,2013-09-09 20:02:00,
2013-09-09 15:07:00,95.2,74.4,30.12,North,0,0.0,0.0,51,0.00,,,0.00,WUHU216HW,2013-09-09 20:07:00,
2013-09-09 15:12:00,95.0,73.6,30.11,North,0,0.0,0.0,50,0.00,,,0.00,WUHU216HW,2013-09-09 20:12:00,
2013-09-09 15:17:00,95.0,73.6,30.11,North,0,0.0,0.0,50,0.00,,,0.00,WUHU216HW,2013-09-09 20:17:00,
2013-09-09 15:22:00,95.2,73.8,30.11,North,0,0.0,0.0,50,0.00,,,0.00,WUHU216HW,2013-09-09 20:22:00,
2013-09-09 15:27:00,95.2,73.1,30.11,North,0,0.0,0.0,49,0.00,,,0.00,WUHU216HW,2013-09-09 20:27:00,
2013-09-09 15:32:00,95.4,73.3,30.11,North,0,0.0,0.0,49,0.00,,,0.00,WUHU216HW,2013-09-09 20:32:00,
2013-09-09 15:37:00,95.4,73.3,30.11,North,0,0.0,0.0,49,0.00,,,0.00,WUHU216HW,2013-09-09 20:37:00,
2013-09-09 15:42:00,95.4,72.6,30.11,North,0,0.0,0.0,48,0.00,,,0.00,WUHU216HW,2013-09-09 20:42:00,
2013-09-09 15:47:00,95.4,72.6,30.11,North,0,0.0,0.0,48,0.00,,,0.00,WUHU216HW,2013-09-09 20:47:00,
2013-09-09 15:52:00,95.4,71.9,30.10,North,0,0.0,0.0,47,0.00,,,0.00,WUHU216HW,2013-09-09 20:52:00,
2013-09-09 15:57:00,95.4,71.9,30.11,North,0,0.0,0.0,47,0.00,,,0.00,WUHU216HW,2013-09-09 20:57:00,
2013-09-09 16:02:00,95.4,72.6,30.10,North,0,0.0,0.0,48,0.00,,,0.00,WUHU216HW,2013-09-09 21:02:00,
2013-09-09 16:07:00,95.4,71.9,30.11,North,0,0.0,0.0,47,0.00,,,0.00,WUHU216HW,2013-09-09 21:07:00,
2013-09-09 16:12:00,95.4,72.6,30.10,North,0,0.0,0.0,48,0.00,,,0.00,WUHU216HW,2013-09-09 21:12:00,
2013-09-09 16:17:00,95.4,71.9,30.10,North,0,0.0,0.0,47,0.00,,,0.00,WUHU216HW,2013-09-09 21:17:00,
2013-09-09 16:22:00,95.4,71.9,30.11,North,0,0.0,0.0,47,0.00,,,0.00,WUHU216HW,2013-09-09 21:22:00,
2013-09-09 16:27:00,95.4,71.9,30.11,North,0,0.0,0.0,47,0.00,,,0.00,WUHU216HW,2013-09-09 21:27:00,
2013-09-09 16:32:00,95.4,71.9,30.10,North,0,0.0,0.0,47,0.00,,,0.00,WUHU216HW,2013-09-09 21:32:00,
2013-09-09 16:37:00,95.2,71.1,30.10,North,0,0.0,0.0,46,0.00,,,0.00,WUHU216HW,2013-09-09 21:37:00,
2013-09-09 16:42:00,95.2,71.8,30.11,North,0,0.0,0.0,47,0.00,,,0.00,WUHU216HW,2013-09-09 21:42:00,
2013-09-09 16:47:00,95.2,71.8,30.11,North,0,0.0,0.0,47,0.00,,,0.00,WUHU216HW,2013-09-09 21:47:00,
2013-09-09 16:52:00,95.0,71.7,30.11,North,0,0.0,0.0,47,0.00,,,0.00,WUHU216HW,2013-09-09 21:52:00,
2013-09-09 16:57:00,95.0,71.7,30.11,North,0,0.0,0.0,47,0.00,,,0.00,WUHU216HW,2013-09-09 21:57:00,
2013-09-09 17:02:00,95.0,72.3,30.11,North,0,0.0,0.0,48,0.00,,,0.00,WUHU216HW,2013-09-09 22:02:00,
2013-09-09 17:07:00,94.9,72.1,30.11,North,0,0.0,0.0,48,0.00,,,0.00,WUHU216HW,2013-09-09 22:07:00,
2013-09-09 17:12:00,94.7,71.9,30.10,North,0,0.0,0.0,48,0.00,,,0.00,WUHU216HW,2013-09-09 22:12:00,
2013-09-09 17:17:00,94.7,71.9,30.11,North,0,0.0,0.0,48,0.00,,,0.00,WUHU216HW,2013-09-09 22:17:00,
2013-09-09 17:22:00,94.5,71.7,30.11,North,0,0.0,0.0,48,0.00,,,0.00,WUHU216HW,2013-09-09 22:22:00,
2013-09-09 17:27:00,94.3,71.6,30.11,North,0,0.0,0.0,48,0.00,,,0.00,WUHU216HW,2013-09-09 22:27:00,
2013-09-09 17:32:00,94.1,72.1,30.11,North,0,0.0,0.0,49,0.00,,,0.00,WUHU216HW,2013-09-09 22:32:00,
2013-09-09 17:37:00,94.1,72.1,30.11,North,0,0.0,0.0,49,0.00,,,0.00,WUHU216HW,2013-09-09 22:37:00,
2013-09-09 17:42:00,94.0,71.9,30.11,North,0,0.0,0.0,49,0.00,,,0.00,WUHU216HW,2013-09-09 22:42:00,
2013-09-09 17:47:00,93.8,72.4,30.11,North,0,0.0,0.0,50,0.00,,,0.00,WUHU216HW,2013-09-09 22:47:00,
2013-09-09 17:52:00,93.6,72.2,30.11,North,0,0.0,0.0,50,0.00,,,0.00,WUHU216HW,2013-09-09 22:52:00,
2013-09-09 17:57:00,93.2,71.8,30.11,North,0,0.0,0.0,50,0.00,,,0.00,WUHU216HW,2013-09-09 22:57:00,
2013-09-09 18:02:00,93.2,71.8,30.11,North,0,0.0,0.0,50,0.00,,,0.00,WUHU216HW,2013-09-09 23:02:00,
2013-09-09 18:07:00,92.9,71.5,30.11,North,0,0.0,0.0,50,0.00,,,0.00,WUHU216HW,2013-09-09 23:07:00,
2013-09-09 18:12:00,92.7,71.9,30.11,North,0,0.0,0.0,51,0.00,,,0.00,WUHU216HW,2013-09-09 23:12:00,
2013-09-09 18:17:00,92.5,71.7,30.11,North,0,0.0,0.0,51,0.00,,,0.00,WUHU216HW,2013-09-09 23:17:00,
2013-09-09 18:22:00,92.2,71.4,30.11,North,0,0.0,0.0,51,0.00,,,0.00,WUHU216HW,2013-09-09 23:22:00,
2013-09-09 18:27:00,92.0,71.8,30.11,North,0,0.0,0.0,52,0.00,,,0.00,WUHU216HW,2013-09-09 23:27:00,
2013-09-09 18:32:00,91.6,71.5,30.11,North,0,0.0,0.0,52,0.00,,,0.00,WUHU216HW,2013-09-09 23:32:00,
2013-09-09 18:37:00,91.3,71.6,30.11,North,0,0.0,0.0,53,0.00,,,0.00,WUHU216HW,2013-09-09 23:37:00,
2013-09-09 18:42:00,91.1,71.5,30.11,North,0,0.0,0.0,53,0.00,,,0.00,WUHU216HW,2013-09-09 23:42:00,
2013-09-09 18:47:00,90.7,71.2,30.11,North,0,0.0,0.0,53,0.00,,,0.00,WUHU216HW,2013-09-09 23:47:00,
2013-09-09 18:52:00,90.4,71.4,30.11,North,0,0.0,0.0,54,0.00,,,0.00,WUHU216HW,2013-09-09 23:52:00,
2013-09-09 18:57:00,90.2,71.2,30.11,North,0,0.0,0.0,54,0.00,,,0.00,WUHU216HW,2013-09-09 23:57:00,
2013-09-09 19:02:00,90.0,71.1,30.11,North,0,0.0,0.0,54,0.00,,,0.00,WUHU216HW,2013-09-10 00:02:00,
2013-09-09 19:07:00,89.5,71.1,30.11,North,0,0.0,0.0,55,0.00,,,0.00,WUHU216HW,2013-09-10 00:07:00,
2013-09-09 19:12:00,89.1,70.8,30.11,North,0,0.0,0.0,55,0.00,,,0.00,WUHU216HW,2013-09-10 00:12:00,
2013-09-09 19:17:00,88.7,70.5,30.11,North,0,0.0,0.0,55,0.00,,,0.00,WUHU216HW,2013-09-10 00:17:00,
2013-09-09 19:22:00,88.2,70.0,30.11,North,0,0.0,0.0,55,0.00,,,0.00,WUHU216HW,2013-09-10 00:22:00,
2013-09-09 19:27:00,88.0,69.9,30.12,North,0,0.0,0.0,55,0.00,,,0.00,WUHU216HW,2013-09-10 00:27:00,
2013-09-09 19:32:00,87.7,69.5,30.12,North,0,0.0,0.0,55,0.00,,,0.00,WUHU216HW,2013-09-10 00:32:00,
2013-09-09 19:37:00,87.3,69.7,30.12,North,0,0.0,0.0,56,0.00,,,0.00,WUHU216HW,2013-09-10 00:37:00,
2013-09-09 19:42:00,87.1,69.5,30.12,North,0,0.0,0.0,56,0.00,,,0.00,WUHU216HW,2013-09-10 00:42:00,
2013-09-09 19:47:00,86.8,69.1,30.12,North,0,0.0,0.0,56,0.00,,,0.00,WUHU216HW,2013-09-10 00:47:00,
2013-09-09 19:52:00,86.4,69.3,30.12,North,0,0.0,0.0,57,0.00,,,0.00,WUHU216HW,2013-09-10 00:52:00,
2013-09-09 19:57:00,86.0,69.0,30.12,North,0,0.0,0.0,57,0.00,,,0.00,WUHU216HW,2013-09-10 00:57:00,
2013-09-09 20:02:00,85.9,68.9,30.12,North,0,0.0,0.0,57,0.00,,,0.00,WUHU216HW,2013-09-10 01:02:00,
2013-09-09 20:07:00,85.5,69.0,30.12,North,0,0.0,0.0,58,0.00,,,0.00,WUHU216HW,2013-09-10 01:07:00,
2013-09-09 20:12:00,85.3,68.9,30.12,North,0,0.0,0.0,58,0.00,,,0.00,WUHU216HW,2013-09-10 01:12:00,
2013-09-09 20:17:00,85.0,68.6,30.13,North,0,0.0,0.0,58,0.00,,,0.00,WUHU216HW,2013-09-10 01:17:00,
2013-09-09 20:22:00,84.6,68.2,30.13,North,0,0.0,0.0,58,0.00,,,0.00,WUHU216HW,2013-09-10 01:22:00,
2013-09-09 20:27:00,84.6,68.8,30.13,North,0,0.0,0.0,59,0.00,,,0.00,WUHU216HW,2013-09-10 01:27:00,
2013-09-09 20:32:00,84.2,68.4,30.13,North,0,0.0,0.0,59,0.00,,,0.00,WUHU216HW,2013-09-10 01:32:00,
2013-09-09 20:37:00,84.1,68.2,30.13,North,0,0.0,0.0,59,0.00,,,0.00,WUHU216HW,2013-09-10 01:37:00,
2013-09-09 20:42:00,83.9,68.0,30.13,North,0,0.0,0.0,59,0.00,,,0.00,WUHU216HW,2013-09-10 01:42:00,
2013-09-09 20:47:00,83.9,68.0,30.14,North,0,0.0,0.0,59,0.00,,,0.00,WUHU216HW,2013-09-10 01:47:00,
2013-09-09 20:52:00,83.7,67.9,30.14,North,0,0.0,0.0,59,0.00,,,0.00,WUHU216HW,2013-09-10 01:52:00,
2013-09-09 20:57:00,83.7,67.9,30.14,North,0,0.0,0.0,59,0.00,,,0.00,WUHU216HW,2013-09-10 01:57:00,
2013-09-09 21:02:00,83.7,67.9,30.14,North,0,0.0,0.0,59,0.00,,,0.00,WUHU216HW,2013-09-10 02:02:00,
2013-09-09 21:07:00,83.7,67.9,30.14,North,0,0.0,0.0,59,0.00,,,0.00,WUHU216HW,2013-09-10 02:07:00,
2013-09-09 21:12:00,83.5,67.7,30.14,North,0,0.0,0.0,59,0.00,,,0.00,WUHU216HW,2013-09-10 02:12:00,
2013-09-09 21:17:00,83.7,67.9,30.14,North,0,0.0,0.0,59,0.00,,,0.00,WUHU216HW,2013-09-10 02:17:00,
2013-09-09 21:22:00,83.9,68.0,30.14,North,0,0.0,0.0,59,0.00,,,0.00,WUHU216HW,2013-09-10 02:22:00,
2013-09-09 21:27:00,83.9,68.0,30.14,North,0,0.0,0.0,59,0.00,,,0.00,WUHU216HW,2013-09-10 02:27:00,
2013-09-09 21:32:00,84.1,67.7,30.14,North,0,0.0,0.0,58,0.00,,,0.00,WUHU216HW,2013-09-10 02:32:00,
2013-09-09 21:37:00,83.9,67.5,30.14,North,0,0.0,0.0,58,0.00,,,0.00,WUHU216HW,2013-09-10 02:37:00,
2013-09-09 21:42:00,84.1,67.7,30.14,North,0,0.0,0.0,58,0.00,,,0.00,WUHU216HW,2013-09-10 02:42:00,
2013-09-09 21:47:00,84.1,67.2,30.14,North,0,0.0,0.0,57,0.00,,,0.00,WUHU216HW,2013-09-10 02:47:00,
2013-09-09 21:52:00,84.2,67.4,30.14,North,0,0.0,0.0,57,0.00,,,0.00,WUHU216HW,2013-09-10 02:52:00,
2013-09-09 21:57:00,84.2,67.4,30.15,North,0,0.0,0.0,57,0.00,,,0.00,WUHU216HW,2013-09-10 02:57:00,
2013-09-09 22:02:00,84.1,66.7,30.15,North,0,0.0,0.0,56,0.00,,,0.00,WUHU216HW,2013-09-10 03:02:00,
2013-09-09 22:07:00,84.1,66.7,30.15,North,0,0.0,0.0,56,0.00,,,0.00,WUHU216HW,2013-09-10 03:07:00,
2013-09-09 22:12:00,84.1,66.7,30.15,North,0,0.0,0.0,56,0.00,,,0.00,WUHU216HW,2013-09-10 03:12:00,
2013-09-09 22:17:00,83.9,66.0,30.15,North,0,0.0,0.0,55,0.00,,,0.00,WUHU216HW,2013-09-10 03:17:00,
2013-09-09 22:22:00,83.7,65.8,30.16,North,0,0.0,0.0,55,0.00,,,0.00,WUHU216HW,2013-09-10 03:22:00,
2013-09-09 22:27:00,83.5,65.6,30.16,North,0,0.0,0.0,55,0.00,,,0.00,WUHU216HW,2013-09-10 03:27:00,
2013-09-09 22:32:00,83.5,65.6,30.16,North,0,0.0,0.0,55,0.00,,,0.00,WUHU216HW,2013-09-10 03:32:00,
2013-09-09 22:37:00,83.5,65.6,30.16,North,0,0.0,0.0,55,0.00,,,0.00,WUHU216HW,2013-09-10 03:37:00,
2013-09-09 22:42:00,83.5,65.6,30.16,North,0,0.0,0.0,55,0.00,,,0.00,WUHU216HW,2013-09-10 03:42:00,
2013-09-09 22:47:00,83.5,65.6,30.16,North,0,0.0,0.0,55,0.00,,,0.00,WUHU216HW,2013-09-10 03:47:00,
2013-09-09 22:52:00,83.5,65.6,30.16,North,0,0.0,0.0,55,0.00,,,0.00,WUHU216HW,2013-09-10 03:52:00,
2013-09-09 22:57:00,83.5,65.6,30.16,North,0,0.0,0.0,55,0.00,,,0.00,WUHU216HW,2013-09-10 03:57:00,
2013-09-09 23:01:00,83.5,65.1,30.17,North,0,0.0,0.0,54,0.00,,,0.00,WUHU216HW,2013-09-10 04:01:00,
2013-09-09 23:06:00,83.3,64.9,30.17,North,0,0.0,0.0,54,0.00,,,0.00,WUHU216HW,2013-09-10 04:06:00,
2013-09-09 23:11:00,83.3,64.9,30.17,North,0,0.0,0.0,54,0.00,,,0.00,WUHU216HW,2013-09-10 04:11:00,
2013-09-09 23:16:00,83.2,64.7,30.17,North,0,0.0,0.0,54,0.00,,,0.00,WUHU216HW,2013-09-10 04:16:00,
2013-09-09 23:21:00,83.0,64.5,30.17,North,0,0.0,0.0,54,0.00,,,0.00,WUHU216HW,2013-09-10 04:21:00,
2013-09-09 23:26:00,83.0,64.5,30.17,North,0,0.0,0.0,54,0.00,,,0.00,WUHU216HW,2013-09-10 04:26:00,
2013-09-09 23:31:00,82.8,64.4,30.17,North,0,0.0,0.0,54,0.00,,,0.00,WUHU216HW,2013-09-10 04:31:00,
2013-09-09 23:36:00,82.6,64.2,30.17,North,0,0.0,0.0,54,0.00,,,0.00,WUHU216HW,2013-09-10 04:36:00,
2013-09-09 23:41:00,82.4,64.0,30.17,North,0,0.0,0.0,54,0.00,,,0.00,WUHU216HW,2013-09-10 04:41:00,
2013-09-09 23:46:00,82.4,64.0,30.17,North,0,0.0,0.0,54,0.00,,,0.00,WUHU216HW,2013-09-10 04:46:00,
2013-09-09 23:51:00,82.4,64.0,30.17,North,0,0.0,0.0,54,0.00,,,0.00,WUHU216HW,2013-09-10 04:51:00,
2013-09-09 23:56:00,82.3,63.8,30.17,North,0,0.0,0.0,54,0.00,,,0.00,WUHU216HW,2013-09-10 04:56:00,